sensor_id;sensor_type;location;lat;lon;timestamp;pressure;altitude;pressure_sealevel;temperature;humidity
76732;BME280;65656;51.130;13.658;2023-06-19T00:04:01;99101.69;;;16.71;90.90
76732;BME280;65656;51.130;13.658;2023-06-19T00:08:03;99102.25;;;16.68;90.96
76732;BME280;65656;51.130;13.658;2023-06-19T00:12:05;99093.56;;;16.56;91.24
76732;BME280;65656;51.130;13.658;2023-06-19T00:16:07;99084.09;;;16.43;92.09
76732;BME280;65656;51.130;13.658;2023-06-19T00:20:10;99097.59;;;16.45;90.85
76732;BME280;65656;51.130;13.658;2023-06-19T00:24:11;99097.75;;;16.35;92.10
76732;BME280;65656;51.130;13.658;2023-06-19T00:28:13;99093.84;;;16.36;92.21
76732;BME280;65656;51.130;13.658;2023-06-19T00:32:14;99097.75;;;16.35;92.30
76732;BME280;65656;51.130;13.658;2023-06-19T00:36:17;99088.16;;;16.27;92.55
76732;BME280;65656;51.130;13.658;2023-06-19T00:40:27;99093.97;;;16.26;92.47
76732;BME280;65656;51.130;13.658;2023-06-19T00:44:28;99082.84;;;16.31;91.68
76732;BME280;65656;51.130;13.658;2023-06-19T00:48:31;99083.38;;;16.33;92.07
76732;BME280;65656;51.130;13.658;2023-06-19T00:52:35;99091.66;;;16.33;92.03
76732;BME280;65656;51.130;13.658;2023-06-19T00:56:37;99084.28;;;16.28;91.97
76732;BME280;65656;51.130;13.658;2023-06-19T01:00:39;99079.56;;;16.29;91.41
76732;BME280;65656;51.130;13.658;2023-06-19T01:04:40;99069.63;;;16.28;91.30
76732;BME280;65656;51.130;13.658;2023-06-19T01:08:49;99077.38;;;16.26;91.54
76732;BME280;65656;51.130;13.658;2023-06-19T01:12:56;99083.56;;;16.17;91.69
76732;BME280;65656;51.130;13.658;2023-06-19T01:16:58;99079.63;;;16.24;91.16
76732;BME280;65656;51.130;13.658;2023-06-19T01:21:09;99070.09;;;16.35;90.62
76732;BME280;65656;51.130;13.658;2023-06-19T01:25:12;99069.09;;;16.26;91.72
76732;BME280;65656;51.130;13.658;2023-06-19T01:29:15;99065.88;;;16.19;91.83
76732;BME280;65656;51.130;13.658;2023-06-19T01:33:20;99061.53;;;16.12;92.79
76732;BME280;65656;51.130;13.658;2023-06-19T01:37:25;99058.47;;;16.14;92.82
76732;BME280;65656;51.130;13.658;2023-06-19T01:41:29;99061.84;;;16.11;93.27
76732;BME280;65656;51.130;13.658;2023-06-19T01:45:31;99054.00;;;15.94;94.27
76732;BME280;65656;51.130;13.658;2023-06-19T01:49:33;99053.56;;;15.58;97.20
76732;BME280;65656;51.130;13.658;2023-06-19T01:53:34;99058.25;;;15.28;99.48
76732;BME280;65656;51.130;13.658;2023-06-19T01:57:37;99053.72;;;15.09;100.00
76732;BME280;65656;51.130;13.658;2023-06-19T02:01:38;99053.38;;;14.81;100.00
76732;BME280;65656;51.130;13.658;2023-06-19T02:05:40;99049.09;;;14.65;100.00
76732;BME280;65656;51.130;13.658;2023-06-19T02:09:41;99043.06;;;14.58;100.00
76732;BME280;65656;51.130;13.658;2023-06-19T02:13:44;99041.16;;;14.53;100.00
76732;BME280;65656;51.130;13.658;2023-06-19T02:17:46;99041.44;;;14.52;100.00
76732;BME280;65656;51.130;13.658;2023-06-19T02:21:47;99038.69;;;14.52;100.00
76732;BME280;65656;51.130;13.658;2023-06-19T02:25:49;99029.88;;;14.49;100.00
76732;BME280;65656;51.130;13.658;2023-06-19T02:29:51;99036.53;;;14.48;100.00
76732;BME280;65656;51.130;13.658;2023-06-19T02:33:53;99029.34;;;14.42;100.00
76732;BME280;65656;51.130;13.658;2023-06-19T02:37:54;99024.44;;;14.34;100.00
76732;BME280;65656;51.130;13.658;2023-06-19T02:41:56;99018.41;;;14.32;100.00
76732;BME280;65656;51.130;13.658;2023-06-19T02:45:59;99020.06;;;14.28;100.00
76732;BME280;65656;51.130;13.658;2023-06-19T02:50:02;99015.91;;;14.31;100.00
76732;BME280;65656;51.130;13.658;2023-06-19T02:54:04;99017.81;;;14.35;100.00
76732;BME280;65656;51.130;13.658;2023-06-19T02:58:05;99010.34;;;14.41;100.00
76732;BME280;65656;51.130;13.658;2023-06-19T03:02:08;99016.94;;;14.50;100.00
76732;BME280;65656;51.130;13.658;2023-06-19T03:06:09;99009.47;;;14.51;100.00
76732;BME280;65656;51.130;13.658;2023-06-19T03:10:11;99013.34;;;14.49;100.00
76732;BME280;65656;51.130;13.658;2023-06-19T03:14:12;99008.34;;;14.57;100.00
76732;BME280;65656;51.130;13.658;2023-06-19T03:18:15;99004.97;;;14.65;100.00
76732;BME280;65656;51.130;13.658;2023-06-19T03:22:17;99006.53;;;14.76;100.00
76732;BME280;65656;51.130;13.658;2023-06-19T03:26:19;98998.72;;;14.88;100.00
76732;BME280;65656;51.130;13.658;2023-06-19T03:30:21;99003.34;;;14.93;100.00
76732;BME280;65656;51.130;13.658;2023-06-19T03:34:25;99003.56;;;15.01;100.00
76732;BME280;65656;51.130;13.658;2023-06-19T03:38:26;99002.22;;;14.99;100.00
76732;BME280;65656;51.130;13.658;2023-06-19T03:42:28;99006.38;;;14.96;100.00
76732;BME280;65656;51.130;13.658;2023-06-19T03:46:29;99000.66;;;14.88;100.00
76732;BME280;65656;51.130;13.658;2023-06-19T03:50:32;98994.13;;;14.79;100.00
76732;BME280;65656;51.130;13.658;2023-06-19T03:54:34;99007.06;;;14.78;100.00
76732;BME280;65656;51.130;13.658;2023-06-19T03:58:35;99015.69;;;14.71;100.00
76732;BME280;65656;51.130;13.658;2023-06-19T04:02:37;99006.63;;;14.66;100.00
76732;BME280;65656;51.130;13.658;2023-06-19T04:06:40;99009.38;;;14.66;100.00
76732;BME280;65656;51.130;13.658;2023-06-19T04:10:41;99011.53;;;14.74;100.00
76732;BME280;65656;51.130;13.658;2023-06-19T04:14:43;98999.28;;;14.85;100.00
76732;BME280;65656;51.130;13.658;2023-06-19T04:18:44;98999.78;;;14.92;100.00
76732;BME280;65656;51.130;13.658;2023-06-19T04:22:47;99017.00;;;15.13;100.00
76732;BME280;65656;51.130;13.658;2023-06-19T04:26:48;99031.75;;;15.56;100.00
76732;BME280;65656;51.130;13.658;2023-06-19T04:30:50;99026.97;;;15.91;100.00
76732;BME280;65656;51.130;13.658;2023-06-19T04:34:51;99020.00;;;16.17;100.00
76732;BME280;65656;51.130;13.658;2023-06-19T04:38:54;99012.69;;;16.27;99.64
76732;BME280;65656;51.130;13.658;2023-06-19T04:42:55;99016.91;;;16.43;98.28
76732;BME280;65656;51.130;13.658;2023-06-19T04:46:57;99017.41;;;16.64;98.02
76732;BME280;65656;51.130;13.658;2023-06-19T04:50:59;99016.47;;;16.74;100.00
76732;BME280;65656;51.130;13.658;2023-06-19T04:55:01;99017.13;;;16.84;100.00
76732;BME280;65656;51.130;13.658;2023-06-19T04:59:03;99027.19;;;16.94;96.52
76732;BME280;65656;51.130;13.658;2023-06-19T05:03:04;99022.09;;;17.01;98.62
76732;BME280;65656;51.130;13.658;2023-06-19T05:07:06;99037.72;;;17.11;94.14
76732;BME280;65656;51.130;13.658;2023-06-19T05:11:09;99026.75;;;17.19;94.14
76732;BME280;65656;51.130;13.658;2023-06-19T05:15:10;99028.56;;;17.29;94.10
76732;BME280;65656;51.130;13.658;2023-06-19T05:19:12;99026.19;;;17.22;94.44
76732;BME280;65656;51.130;13.658;2023-06-19T05:23:13;99026.09;;;17.27;93.29
76732;BME280;65656;51.130;13.658;2023-06-19T05:27:16;99032.28;;;17.38;93.33
76732;BME280;65656;51.130;13.658;2023-06-19T05:31:18;99029.09;;;17.45;93.28
76732;BME280;65656;51.130;13.658;2023-06-19T05:35:19;99034.38;;;17.60;92.64
76732;BME280;65656;51.130;13.658;2023-06-19T05:39:21;99026.94;;;17.74;92.07
76732;BME280;65656;51.130;13.658;2023-06-19T05:43:23;99026.09;;;17.88;90.74
76732;BME280;65656;51.130;13.658;2023-06-19T05:47:25;99041.91;;;18.01;88.03
76732;BME280;65656;51.130;13.658;2023-06-19T05:51:27;99033.78;;;18.04;86.34
76732;BME280;65656;51.130;13.658;2023-06-19T05:55:28;99029.69;;;18.02;87.84
76732;BME280;65656;51.130;13.658;2023-06-19T05:59:31;99038.09;;;18.10;89.68
76732;BME280;65656;51.130;13.658;2023-06-19T06:03:32;99038.09;;;18.24;87.64
76732;BME280;65656;51.130;13.658;2023-06-19T06:07:34;99039.31;;;18.32;88.36
76732;BME280;65656;51.130;13.658;2023-06-19T06:11:38;99042.19;;;18.41;86.79
76732;BME280;65656;51.130;13.658;2023-06-19T06:15:41;99043.41;;;18.34;88.71
76732;BME280;65656;51.130;13.658;2023-06-19T06:19:42;99043.81;;;18.42;87.32
76732;BME280;65656;51.130;13.658;2023-06-19T06:23:43;99050.97;;;18.56;85.71
76732;BME280;65656;51.130;13.658;2023-06-19T06:27:45;99046.03;;;18.67;85.35
76732;BME280;65656;51.130;13.658;2023-06-19T06:31:48;99058.56;;;18.78;84.17
76732;BME280;65656;51.130;13.658;2023-06-19T06:35:50;99054.75;;;18.74;85.19
76732;BME280;65656;51.130;13.658;2023-06-19T06:39:52;99068.84;;;18.64;86.06
76732;BME280;65656;51.130;13.658;2023-06-19T06:43:53;99069.44;;;18.75;85.83
76732;BME280;65656;51.130;13.658;2023-06-19T06:47:56;99071.94;;;18.76;86.75
76732;BME280;65656;51.130;13.658;2023-06-19T06:51:57;99072.09;;;18.93;85.19
76732;BME280;65656;51.130;13.658;2023-06-19T06:55:59;99070.47;;;19.15;84.04
76732;BME280;65656;51.130;13.658;2023-06-19T07:00:01;99071.09;;;19.34;84.13
76732;BME280;65656;51.130;13.658;2023-06-19T07:04:04;99067.91;;;19.49;83.45
76732;BME280;65656;51.130;13.658;2023-06-19T07:08:05;99070.69;;;19.72;81.66
76732;BME280;65656;51.130;13.658;2023-06-19T07:12:07;99069.63;;;19.90;80.29
76732;BME280;65656;51.130;13.658;2023-06-19T07:16:09;99076.13;;;20.17;79.71
76732;BME280;65656;51.130;13.658;2023-06-19T07:20:12;99078.78;;;20.30;79.82
76732;BME280;65656;51.130;13.658;2023-06-19T07:24:13;99061.19;;;20.52;80.64
76732;BME280;65656;51.130;13.658;2023-06-19T07:28:15;99071.56;;;20.78;78.07
76732;BME280;65656;51.130;13.658;2023-06-19T07:32:16;99075.16;;;21.04;76.80
76732;BME280;65656;51.130;13.658;2023-06-19T07:36:19;99077.63;;;21.32;75.01
76732;BME280;65656;51.130;13.658;2023-06-19T07:40:21;99076.00;;;21.31;76.32
76732;BME280;65656;51.130;13.658;2023-06-19T07:44:23;99082.03;;;21.59;73.99
76732;BME280;65656;51.130;13.658;2023-06-19T07:48:25;99083.97;;;21.67;73.84
76732;BME280;65656;51.130;13.658;2023-06-19T07:52:27;99076.38;;;21.85;73.99
76732;BME280;65656;51.130;13.658;2023-06-19T07:56:29;99096.19;;;21.92;73.61
76732;BME280;65656;51.130;13.658;2023-06-19T08:00:30;99086.31;;;22.03;73.21
76732;BME280;65656;51.130;13.658;2023-06-19T08:04:32;99089.53;;;22.22;70.92
76732;BME280;65656;51.130;13.658;2023-06-19T08:08:36;99078.38;;;22.22;70.82
76732;BME280;65656;51.130;13.658;2023-06-19T08:12:38;99092.03;;;22.15;71.90
76732;BME280;65656;51.130;13.658;2023-06-19T08:16:39;99092.56;;;22.00;72.30
76732;BME280;65656;51.130;13.658;2023-06-19T08:20:41;99085.56;;;21.85;72.11
76732;BME280;65656;51.130;13.658;2023-06-19T08:24:43;99093.31;;;21.80;72.31
76732;BME280;65656;51.130;13.658;2023-06-19T08:28:45;99094.63;;;21.74;72.61
76732;BME280;65656;51.130;13.658;2023-06-19T08:32:46;99100.19;;;21.74;74.15
76732;BME280;65656;51.130;13.658;2023-06-19T08:36:48;99097.56;;;21.68;72.38
76732;BME280;65656;51.130;13.658;2023-06-19T08:40:51;99103.16;;;21.68;72.59
76732;BME280;65656;51.130;13.658;2023-06-19T08:44:53;99094.94;;;21.81;71.37
76732;BME280;65656;51.130;13.658;2023-06-19T08:48:55;99096.41;;;21.87;71.90
76732;BME280;65656;51.130;13.658;2023-06-19T08:52:57;99098.16;;;21.91;72.45
76732;BME280;65656;51.130;13.658;2023-06-19T08:57:01;99107.16;;;22.06;71.67
76732;BME280;65656;51.130;13.658;2023-06-19T09:01:03;99111.69;;;22.28;71.99
76732;BME280;65656;51.130;13.658;2023-06-19T09:05:13;99112.00;;;22.35;72.40
76732;BME280;65656;51.130;13.658;2023-06-19T09:09:15;99103.63;;;22.35;71.28
76732;BME280;65656;51.130;13.658;2023-06-19T09:13:18;99109.19;;;22.35;74.74
76732;BME280;65656;51.130;13.658;2023-06-19T09:17:20;99101.59;;;22.44;72.96
76732;BME280;65656;51.130;13.658;2023-06-19T09:21:22;99106.97;;;22.19;74.83
76732;BME280;65656;51.130;13.658;2023-06-19T09:25:23;99103.22;;;22.45;74.28
76732;BME280;65656;51.130;13.658;2023-06-19T09:29:26;99101.38;;;22.78;74.82
76732;BME280;65656;51.130;13.658;2023-06-19T09:33:29;99102.72;;;23.02;71.81
76732;BME280;65656;51.130;13.658;2023-06-19T09:37:31;99112.47;;;23.17;72.92
76732;BME280;65656;51.130;13.658;2023-06-19T09:41:33;99108.81;;;23.04;71.20
76732;BME280;65656;51.130;13.658;2023-06-19T09:45:38;99099.66;;;22.95;71.62
76732;BME280;65656;51.130;13.658;2023-06-19T09:49:40;99091.19;;;22.83;73.15
76732;BME280;65656;51.130;13.658;2023-06-19T09:53:43;99094.28;;;22.90;71.85
76732;BME280;65656;51.130;13.658;2023-06-19T09:57:46;99098.72;;;22.91;71.74
76732;BME280;65656;51.130;13.658;2023-06-19T10:01:49;99098.25;;;22.80;72.68
76732;BME280;65656;51.130;13.658;2023-06-19T10:05:57;99091.47;;;23.11;72.12
76732;BME280;65656;51.130;13.658;2023-06-19T10:10:01;99097.75;;;23.28;73.64
76732;BME280;65656;51.130;13.658;2023-06-19T10:14:06;99091.34;;;23.82;70.44
76732;BME280;65656;51.130;13.658;2023-06-19T10:18:13;99082.81;;;23.78;69.74
76732;BME280;65656;51.130;13.658;2023-06-19T10:22:19;99074.47;;;24.27;67.75
76732;BME280;65656;51.130;13.658;2023-06-19T10:26:29;99072.88;;;24.38;67.18
76732;BME280;65656;51.130;13.658;2023-06-19T10:30:31;99077.41;;;24.55;66.89
76732;BME280;65656;51.130;13.658;2023-06-19T10:34:35;99075.25;;;24.89;65.33
76732;BME280;65656;51.130;13.658;2023-06-19T10:38:36;99073.44;;;25.21;64.86
76732;BME280;65656;51.130;13.658;2023-06-19T10:42:38;99073.91;;;25.23;63.88
76732;BME280;65656;51.130;13.658;2023-06-19T10:46:40;99059.59;;;25.00;66.26
76732;BME280;65656;51.130;13.658;2023-06-19T10:50:42;99059.69;;;25.16;65.46
76732;BME280;65656;51.130;13.658;2023-06-19T10:54:44;99062.97;;;25.06;64.41
76732;BME280;65656;51.130;13.658;2023-06-19T10:58:45;99069.22;;;25.27;64.46
76732;BME280;65656;51.130;13.658;2023-06-19T11:02:47;99064.94;;;25.45;59.32
76732;BME280;65656;51.130;13.658;2023-06-19T11:06:50;99065.50;;;25.67;56.62
76732;BME280;65656;51.130;13.658;2023-06-19T11:10:51;99073.56;;;25.96;51.07
76732;BME280;65656;51.130;13.658;2023-06-19T11:14:53;99073.84;;;26.23;52.08
76732;BME280;65656;51.130;13.658;2023-06-19T11:18:55;99075.34;;;26.67;49.49
76732;BME280;65656;51.130;13.658;2023-06-19T11:23:00;99074.06;;;27.00;48.67
76732;BME280;65656;51.130;13.658;2023-06-19T11:27:02;99067.28;;;27.01;49.15
76732;BME280;65656;51.130;13.658;2023-06-19T11:31:04;99070.47;;;27.77;44.28
76732;BME280;65656;51.130;13.658;2023-06-19T11:35:07;99056.44;;;26.49;48.85
76732;BME280;65656;51.130;13.658;2023-06-19T11:39:11;99048.13;;;27.07;50.62
76732;BME280;65656;51.130;13.658;2023-06-19T11:43:23;99042.59;;;27.10;48.90
76732;BME280;65656;51.130;13.658;2023-06-19T11:47:25;99034.72;;;27.58;47.17
76732;BME280;65656;51.130;13.658;2023-06-19T11:51:27;99036.59;;;28.65;44.08
76732;BME280;65656;51.130;13.658;2023-06-19T11:55:30;99030.09;;;29.21;43.61
76732;BME280;65656;51.130;13.658;2023-06-19T11:59:31;99034.53;;;29.52;43.51
76732;BME280;65656;51.130;13.658;2023-06-19T12:03:33;99031.75;;;29.96;42.23
76732;BME280;65656;51.130;13.658;2023-06-19T12:07:34;99027.94;;;30.19;41.33
76732;BME280;65656;51.130;13.658;2023-06-19T12:11:37;99016.09;;;30.58;39.41
76732;BME280;65656;51.130;13.658;2023-06-19T12:15:39;99011.47;;;29.84;43.60
76732;BME280;65656;51.130;13.658;2023-06-19T12:19:40;99018.03;;;29.24;41.65
76732;BME280;65656;51.130;13.658;2023-06-19T12:23:42;99022.44;;;29.52;43.04
76732;BME280;65656;51.130;13.658;2023-06-19T12:27:44;99018.13;;;29.65;41.08
76732;BME280;65656;51.130;13.658;2023-06-19T12:31:46;99014.28;;;29.47;41.29
76732;BME280;65656;51.130;13.658;2023-06-19T12:35:47;99011.81;;;29.08;42.90
76732;BME280;65656;51.130;13.658;2023-06-19T12:39:49;99012.81;;;28.93;42.84
76732;BME280;65656;51.130;13.658;2023-06-19T12:43:52;99007.03;;;28.85;41.95
76732;BME280;65656;51.130;13.658;2023-06-19T12:47:54;99000.00;;;29.66;39.40
76732;BME280;65656;51.130;13.658;2023-06-19T12:51:57;98994.28;;;29.59;37.39
76732;BME280;65656;51.130;13.658;2023-06-19T12:55:59;98998.38;;;29.31;37.82
76732;BME280;65656;51.130;13.658;2023-06-19T13:00:09;99001.28;;;29.38;38.03
76732;BME280;65656;51.130;13.658;2023-06-19T13:04:12;99003.41;;;28.55;40.04
76732;BME280;65656;51.130;13.658;2023-06-19T13:08:15;98995.16;;;28.96;39.36
76732;BME280;65656;51.130;13.658;2023-06-19T13:12:16;98996.25;;;28.61;39.76
76732;BME280;65656;51.130;13.658;2023-06-19T13:16:19;98992.38;;;28.73;39.92
76732;BME280;65656;51.130;13.658;2023-06-19T13:20:40;98989.94;;;28.71;37.16
76732;BME280;65656;51.130;13.658;2023-06-19T13:24:42;98997.34;;;28.83;38.22
76732;BME280;65656;51.130;13.658;2023-06-19T13:28:43;98994.66;;;28.11;39.56
76732;BME280;65656;51.130;13.658;2023-06-19T13:32:46;98989.41;;;27.44;38.67
76732;BME280;65656;51.130;13.658;2023-06-19T13:36:48;98978.75;;;28.78;37.53
76732;BME280;65656;51.130;13.658;2023-06-19T13:40:49;98980.59;;;30.64;35.12
76732;BME280;65656;51.130;13.658;2023-06-19T13:44:51;98984.97;;;31.27;34.81
76732;BME280;65656;51.130;13.658;2023-06-19T13:48:54;98977.84;;;31.86;32.93
76732;BME280;65656;51.130;13.658;2023-06-19T13:52:55;98973.72;;;31.66;32.92
76732;BME280;65656;51.130;13.658;2023-06-19T13:56:56;98977.06;;;30.15;34.47
76732;BME280;65656;51.130;13.658;2023-06-19T14:00:58;98971.88;;;29.06;37.45
76732;BME280;65656;51.130;13.658;2023-06-19T14:05:01;98971.06;;;30.93;36.47
76732;BME280;65656;51.130;13.658;2023-06-19T14:09:02;98963.88;;;34.28;30.07
76732;BME280;65656;51.130;13.658;2023-06-19T14:13:04;98964.09;;;31.99;33.29
76732;BME280;65656;51.130;13.658;2023-06-19T14:17:05;98955.97;;;32.33;32.60
76732;BME280;65656;51.130;13.658;2023-06-19T14:21:08;98959.47;;;33.71;31.59
76732;BME280;65656;51.130;13.658;2023-06-19T14:25:10;98965.25;;;30.65;35.00
76732;BME280;65656;51.130;13.658;2023-06-19T14:29:11;98951.50;;;32.18;34.16
76732;BME280;65656;51.130;13.658;2023-06-19T14:33:13;98959.16;;;31.46;35.02
76732;BME280;65656;51.130;13.658;2023-06-19T14:37:16;98954.88;;;30.83;37.43
76732;BME280;65656;51.130;13.658;2023-06-19T14:41:17;98949.44;;;31.65;34.48
76732;BME280;65656;51.130;13.658;2023-06-19T14:45:18;98971.22;;;31.22;37.91
76732;BME280;65656;51.130;13.658;2023-06-19T14:49:20;98965.56;;;31.25;33.91
76732;BME280;65656;51.130;13.658;2023-06-19T14:53:23;98977.00;;;30.08;38.08
76732;BME280;65656;51.130;13.658;2023-06-19T14:57:25;98965.03;;;28.77;40.84
76732;BME280;65656;51.130;13.658;2023-06-19T15:01:26;98964.72;;;29.12;40.40
76732;BME280;65656;51.130;13.658;2023-06-19T15:05:28;98960.09;;;28.97;42.53
76732;BME280;65656;51.130;13.658;2023-06-19T15:09:30;98963.38;;;28.72;41.88
76732;BME280;65656;51.130;13.658;2023-06-19T15:13:32;98963.75;;;29.01;41.82
76732;BME280;65656;51.130;13.658;2023-06-19T15:17:33;98966.88;;;29.63;39.84
76732;BME280;65656;51.130;13.658;2023-06-19T15:21:35;98961.44;;;29.10;41.02
76732;BME280;65656;51.130;13.658;2023-06-19T15:25:38;98962.16;;;30.22;39.91
76732;BME280;65656;51.130;13.658;2023-06-19T15:29:39;98961.56;;;29.99;39.63
76732;BME280;65656;51.130;13.658;2023-06-19T15:33:41;98960.50;;;29.32;41.96
76732;BME280;65656;51.130;13.658;2023-06-19T15:37:42;98972.91;;;30.06;39.60
76732;BME280;65656;51.130;13.658;2023-06-19T15:41:45;98961.09;;;30.44;38.87
76732;BME280;65656;51.130;13.658;2023-06-19T15:45:47;98964.09;;;30.11;40.02
76732;BME280;65656;51.130;13.658;2023-06-19T15:49:48;98955.22;;;29.27;41.70
76732;BME280;65656;51.130;13.658;2023-06-19T15:53:50;98957.81;;;30.35;39.77
76732;BME280;65656;51.130;13.658;2023-06-19T15:57:53;98962.81;;;30.60;39.52
76732;BME280;65656;51.130;13.658;2023-06-19T16:01:54;98946.81;;;30.85;39.01
76732;BME280;65656;51.130;13.658;2023-06-19T16:05:56;98957.88;;;30.46;37.82
76732;BME280;65656;51.130;13.658;2023-06-19T16:10:08;98939.56;;;30.91;39.17
76732;BME280;65656;51.130;13.658;2023-06-19T16:14:10;98944.63;;;32.15;33.81
76732;BME280;65656;51.130;13.658;2023-06-19T16:18:12;98947.53;;;33.39;31.02
76732;BME280;65656;51.130;13.658;2023-06-19T16:22:13;98944.78;;;33.76;31.07
76732;BME280;65656;51.130;13.658;2023-06-19T16:26:15;98942.31;;;33.82;31.13
76732;BME280;65656;51.130;13.658;2023-06-19T16:30:18;98933.44;;;34.66;31.28
76732;BME280;65656;51.130;13.658;2023-06-19T16:34:20;98935.28;;;35.44;28.62
76732;BME280;65656;51.130;13.658;2023-06-19T16:38:21;98933.47;;;33.69;30.01
76732;BME280;65656;51.130;13.658;2023-06-19T16:42:24;98942.06;;;32.75;30.93
76732;BME280;65656;51.130;13.658;2023-06-19T16:46:27;98928.66;;;33.00;32.27
76732;BME280;65656;51.130;13.658;2023-06-19T16:50:29;98936.44;;;32.64;32.39
76732;BME280;65656;51.130;13.658;2023-06-19T16:54:30;98942.19;;;31.60;34.02
76732;BME280;65656;51.130;13.658;2023-06-19T16:58:32;98943.03;;;31.86;33.47
76732;BME280;65656;51.130;13.658;2023-06-19T17:02:35;98948.63;;;31.40;34.52
76732;BME280;65656;51.130;13.658;2023-06-19T17:06:36;98953.69;;;30.91;35.93
76732;BME280;65656;51.130;13.658;2023-06-19T17:10:38;98945.22;;;29.74;39.86
76732;BME280;65656;51.130;13.658;2023-06-19T17:14:40;98945.72;;;28.79;42.34
76732;BME280;65656;51.130;13.658;2023-06-19T17:18:43;98942.91;;;27.96;44.79
76732;BME280;65656;51.130;13.658;2023-06-19T17:22:45;98944.53;;;27.51;47.20
76732;BME280;65656;51.130;13.658;2023-06-19T17:26:47;98940.19;;;27.11;47.22
76732;BME280;65656;51.130;13.658;2023-06-19T17:30:48;98948.81;;;26.83;47.84
76732;BME280;65656;51.130;13.658;2023-06-19T17:34:51;98952.88;;;26.47;52.03
76732;BME280;65656;51.130;13.658;2023-06-19T17:38:52;98953.09;;;26.23;52.63
76732;BME280;65656;51.130;13.658;2023-06-19T17:42:54;98951.59;;;25.94;55.24
76732;BME280;65656;51.130;13.658;2023-06-19T17:46:55;98966.13;;;25.68;57.77
76732;BME280;65656;51.130;13.658;2023-06-19T17:50:58;98960.88;;;25.50;56.56
76732;BME280;65656;51.130;13.658;2023-06-19T17:55:00;98964.19;;;25.24;60.23
76732;BME280;65656;51.130;13.658;2023-06-19T17:59:01;98963.25;;;25.05;59.57
76732;BME280;65656;51.130;13.658;2023-06-19T18:03:03;98959.91;;;24.87;61.26
76732;BME280;65656;51.130;13.658;2023-06-19T18:07:06;98961.75;;;24.67;63.72
76732;BME280;65656;51.130;13.658;2023-06-19T18:11:08;98964.56;;;24.55;62.61
76732;BME280;65656;51.130;13.658;2023-06-19T18:15:10;98963.31;;;24.40;62.57
76732;BME280;65656;51.130;13.658;2023-06-19T18:19:11;98951.53;;;24.10;71.94
76732;BME280;65656;51.130;13.658;2023-06-19T18:23:14;98968.09;;;23.78;72.64
76732;BME280;65656;51.130;13.658;2023-06-19T18:27:16;98967.84;;;23.59;74.77
76732;BME280;65656;51.130;13.658;2023-06-19T18:31:17;98971.06;;;23.37;75.29
76732;BME280;65656;51.130;13.658;2023-06-19T18:35:19;98973.13;;;23.27;74.57
76732;BME280;65656;51.130;13.658;2023-06-19T18:39:21;98977.72;;;23.11;76.08
76732;BME280;65656;51.130;13.658;2023-06-19T18:43:23;98971.84;;;22.92;76.66
76732;BME280;65656;51.130;13.658;2023-06-19T18:47:24;98976.84;;;22.77;74.23
76732;BME280;65656;51.130;13.658;2023-06-19T18:51:26;98968.75;;;22.64;73.52
76732;BME280;65656;51.130;13.658;2023-06-19T18:55:29;98976.72;;;22.53;75.76
76732;BME280;65656;51.130;13.658;2023-06-19T18:59:31;98976.97;;;22.39;76.41
76732;BME280;65656;51.130;13.658;2023-06-19T19:03:32;98973.97;;;22.23;77.92
76732;BME280;65656;51.130;13.658;2023-06-19T19:07:34;98974.22;;;22.01;80.21
76732;BME280;65656;51.130;13.658;2023-06-19T19:11:37;98976.81;;;21.77;79.58
76732;BME280;65656;51.130;13.658;2023-06-19T19:15:38;98983.97;;;21.57;80.68
76732;BME280;65656;51.130;13.658;2023-06-19T19:19:40;98980.38;;;21.48;82.10
76732;BME280;65656;51.130;13.658;2023-06-19T19:23:41;98991.38;;;21.44;83.09
76732;BME280;65656;51.130;13.658;2023-06-19T19:27:44;98992.38;;;21.31;83.24
76732;BME280;65656;51.130;13.658;2023-06-19T19:31:45;98993.41;;;21.18;84.11
76732;BME280;65656;51.130;13.658;2023-06-19T19:35:47;98999.47;;;21.02;86.31
76732;BME280;65656;51.130;13.658;2023-06-19T19:39:48;99000.78;;;20.96;86.24
76732;BME280;65656;51.130;13.658;2023-06-19T19:43:51;99002.59;;;21.09;86.31
76732;BME280;65656;51.130;13.658;2023-06-19T19:47:53;99016.00;;;21.07;86.28
76732;BME280;65656;51.130;13.658;2023-06-19T19:51:54;99020.94;;;21.28;84.06
76732;BME280;65656;51.130;13.658;2023-06-19T19:55:56;99015.00;;;21.38;84.11
76732;BME280;65656;51.130;13.658;2023-06-19T19:59:58;99020.53;;;21.55;83.96
76732;BME280;65656;51.130;13.658;2023-06-19T20:04:00;99015.72;;;21.73;83.82
76732;BME280;65656;51.130;13.658;2023-06-19T20:08:02;99022.44;;;21.81;83.47
76732;BME280;65656;51.130;13.658;2023-06-19T20:12:04;99027.09;;;21.97;82.59
76732;BME280;65656;51.130;13.658;2023-06-19T20:16:23;99030.38;;;22.00;82.64
76732;BME280;65656;51.130;13.658;2023-06-19T20:20:24;99023.78;;;22.04;82.15
76732;BME280;65656;51.130;13.658;2023-06-19T20:24:26;99034.78;;;22.09;82.29
76732;BME280;65656;51.130;13.658;2023-06-19T20:28:28;99033.03;;;22.25;80.59
76732;BME280;65656;51.130;13.658;2023-06-19T20:32:30;99033.34;;;22.33;80.31
76732;BME280;65656;51.130;13.658;2023-06-19T20:36:32;99034.59;;;22.44;79.61
76732;BME280;65656;51.130;13.658;2023-06-19T20:40:34;99023.72;;;22.51;79.44
76732;BME280;65656;51.130;13.658;2023-06-19T20:44:35;99037.19;;;22.49;79.16
76732;BME280;65656;51.130;13.658;2023-06-19T20:48:41;99027.38;;;22.43;79.43
76732;BME280;65656;51.130;13.658;2023-06-19T20:52:42;99033.63;;;22.40;79.32
76732;BME280;65656;51.130;13.658;2023-06-19T20:56:44;99039.59;;;22.30;79.62
76732;BME280;65656;51.130;13.658;2023-06-19T21:00:45;99029.13;;;22.27;79.52
76732;BME280;65656;51.130;13.658;2023-06-19T21:04:48;99032.78;;;22.18;80.28